Time;durP1;ratioP1;P1;durP2;ratioP2;P2;SDS_P1;SDS_P2;PMS_P1;PMS_P2;Temp;Humidity;BMP_temperature;BMP_pressure;BME280_temperature;BME280_humidity;BME280_pressure;Samples;Min_cycle;Max_cycle;Signal;HPM_P1;HPM_P2
2023/01/27 00:02:13;;;;;;;7.95;6.35;;;1.30;99.90;;;;;;5090278;28;20215;-84
2023/01/27 00:04:41;;;;;;;5.07;4.57;;;1.30;99.90;;;;;;5090211;28;20259;-83
2023/01/27 00:07:10;;;;;;;4.45;4.05;;;1.30;99.90;;;;;;5090123;28;20208;-83
2023/01/27 00:09:40;;;;;;;6.70;5.07;;;1.30;99.90;;;;;;5090267;28;20230;-85
2023/01/27 00:15:06;;;;;;;5.40;4.83;;;1.30;99.90;;;;;;5090045;28;20212;-84
2023/01/27 00:17:34;;;;;;;7.20;4.77;;;1.20;99.90;;;;;;5090179;28;20219;-83
2023/01/27 00:20:04;;;;;;;5.05;4.53;;;1.30;99.90;;;;;;5090017;28;20204;-83
2023/01/27 00:25:18;;;;;;;4.70;4.23;;;1.20;99.90;;;;;;5092529;28;20279;-83
2023/01/27 00:27:48;;;;;;;5.53;3.90;;;1.20;99.90;;;;;;5092334;28;20207;-83
2023/01/27 00:30:16;;;;;;;5.07;4.23;;;1.20;99.90;;;;;;5092012;28;20220;-84
2023/01/27 00:35:31;;;;;;;4.37;3.97;;;1.20;99.90;;;;;;5092492;28;20208;-83
2023/01/27 00:37:59;;;;;;;4.40;4.00;;;1.20;99.90;;;;;;5092116;28;20203;-84
2023/01/27 00:40:27;;;;;;;4.20;3.63;;;1.20;99.90;;;;;;5093928;28;20200;-84
2023/01/27 00:42:57;;;;;;;4.32;3.92;;;1.20;99.90;;;;;;5096315;28;20228;-85
2023/01/27 00:48:11;;;;;;;7.10;4.97;;;1.20;99.90;;;;;;5095679;28;20217;-84
2023/01/27 00:50:39;;;;;;;7.97;4.10;;;1.20;99.90;;;;;;5096139;28;20220;-84
2023/01/27 00:53:07;;;;;;;4.13;3.73;;;1.20;99.90;;;;;;5095793;28;20228;-83
2023/01/27 00:55:35;;;;;;;4.53;3.97;;;1.20;99.90;;;;;;5095432;28;20201;-84
2023/01/27 00:58:05;;;;;;;8.00;4.47;;;1.20;99.90;;;;;;5095603;28;20348;-84
2023/01/27 01:00:33;;;;;;;4.23;3.83;;;1.20;99.90;;;;;;5095872;28;20287;-84
2023/01/27 01:03:01;;;;;;;3.67;3.33;;;1.20;99.90;;;;;;5095334;28;20228;-84
2023/01/27 01:05:30;;;;;;;4.17;3.77;;;1.20;99.90;;;;;;5095432;28;20222;-83
2023/01/27 01:07:58;;;;;;;3.67;3.33;;;1.20;99.90;;;;;;5095365;28;20213;-83
2023/01/27 01:10:26;;;;;;;4.50;4.10;;;1.20;99.90;;;;;;5095520;28;20229;-84
2023/01/27 01:12:54;;;;;;;4.63;3.77;;;1.20;99.90;;;;;;5095559;28;20231;-84
2023/01/27 01:15:24;;;;;;;6.80;4.23;;;1.20;99.90;;;;;;5095904;28;20208;-84
2023/01/27 01:17:52;;;;;;;4.40;3.53;;;1.20;99.90;;;;;;5095318;28;20226;-84
2023/01/27 01:20:20;;;;;;;5.10;4.07;;;1.10;99.90;;;;;;5095535;28;20197;-84
2023/01/27 01:22:48;;;;;;;4.63;4.00;;;1.10;99.90;;;;;;5095431;28;20229;-84
2023/01/27 01:25:17;;;;;;;4.40;3.60;;;1.10;99.90;;;;;;5095312;28;20224;-84
2023/01/27 01:27:45;;;;;;;3.30;3.00;;;1.10;99.90;;;;;;5095105;28;20273;-83
2023/01/27 01:30:14;;;;;;;5.73;4.20;;;1.10;99.90;;;;;;5094891;28;20224;-83
2023/01/27 01:32:44;;;;;;;5.37;4.13;;;1.10;99.90;;;;;;5094834;28;20224;-83
2023/01/27 01:35:12;;;;;;;5.43;4.37;;;1.10;99.90;;;;;;5095529;28;20208;-84
2023/01/27 01:37:40;;;;;;;3.93;3.57;;;1.10;99.90;;;;;;5094660;28;20290;-84
2023/01/27 01:40:11;;;;;;;4.37;3.63;;;1.10;99.90;;;;;;5095353;28;20204;-84
2023/01/27 01:42:51;;;;;;;5.97;3.93;;;1.10;99.90;;;;;;5095264;28;20228;-84
2023/01/27 01:45:44;;;;;;;4.30;3.90;;;1.20;99.90;;;;;;5095312;28;20208;-84
2023/01/27 01:48:20;;;;;;;5.40;4.27;;;1.20;99.90;;;;;;5094688;28;20211;-84
2023/01/27 01:50:55;;;;;;;4.57;4.17;;;1.20;99.90;;;;;;5094602;28;20212;-84
2023/01/27 01:53:28;;;;;;;4.77;3.90;;;1.20;99.90;;;;;;5094519;28;20219;-84
2023/01/27 01:55:58;;;;;;;5.25;4.75;;;1.20;99.90;;;;;;5094819;28;20206;-84
2023/01/27 01:58:28;;;;;;;5.23;4.37;;;1.20;99.90;;;;;;5094474;28;20204;-84
2023/01/27 02:00:56;;;;;;;6.53;5.50;;;1.20;99.90;;;;;;5094452;28;20204;-84
2023/01/27 02:03:28;;;;;;;5.87;5.23;;;1.10;99.90;;;;;;5094119;28;20216;-84
2023/01/27 02:05:56;;;;;;;8.43;6.07;;;1.10;99.90;;;;;;5094266;28;20263;-84
2023/01/27 02:08:29;;;;;;;5.67;5.17;;;1.10;99.90;;;;;;5094546;28;20200;-84
2023/01/27 02:10:58;;;;;;;6.23;5.10;;;1.20;99.90;;;;;;5094080;28;20227;-84
2023/01/27 02:13:26;;;;;;;6.23;5.00;;;1.20;99.90;;;;;;5094212;28;20243;-84
2023/01/27 02:15:55;;;;;;;7.87;5.80;;;1.10;99.90;;;;;;5094397;28;20208;-83
2023/01/27 02:18:26;;;;;;;6.30;5.70;;;1.20;99.90;;;;;;5093659;28;20204;-84
2023/01/27 02:20:55;;;;;;;5.87;5.20;;;1.20;99.90;;;;;;5093970;28;20196;-84
2023/01/27 02:23:32;;;;;;;6.77;6.07;;;1.20;99.90;;;;;;5094011;28;20284;-84
2023/01/27 02:26:06;;;;;;;8.40;7.03;;;1.20;99.90;;;;;;5094276;28;20208;-84
2023/01/27 02:28:34;;;;;;;8.03;7.00;;;1.20;99.90;;;;;;5093697;28;20211;-85
2023/01/27 02:31:02;;;;;;;6.83;6.20;;;1.20;99.90;;;;;;5093565;28;20228;-84
2023/01/27 02:33:31;;;;;;;7.37;6.43;;;1.20;99.90;;;;;;5093706;28;20240;-84
2023/01/27 02:36:02;;;;;;;7.43;6.47;;;1.30;99.90;;;;;;5093563;28;20208;-85
2023/01/27 02:38:34;;;;;;;7.17;5.93;;;1.20;99.90;;;;;;5093725;28;20219;-83
2023/01/27 02:41:09;;;;;;;9.10;7.30;;;1.20;99.90;;;;;;5093781;28;20197;-84
2023/01/27 02:43:37;;;;;;;6.90;5.63;;;1.20;99.90;;;;;;5093587;28;20215;-84
2023/01/27 02:46:06;;;;;;;10.83;7.30;;;1.20;99.90;;;;;;5093728;28;20203;-84
2023/01/27 02:48:34;;;;;;;11.00;8.00;;;1.20;99.90;;;;;;5093557;28;20209;-84
2023/01/27 02:51:02;;;;;;;12.27;7.37;;;1.20;99.90;;;;;;5093184;28;20220;-84
2023/01/27 02:53:30;;;;;;;6.77;6.17;;;1.20;99.90;;;;;;5093546;28;20224;-84
2023/01/27 02:55:59;;;;;;;24.30;7.47;;;1.20;99.90;;;;;;5093407;28;20262;-84
2023/01/27 02:58:28;;;;;;;11.03;7.67;;;1.20;99.90;;;;;;5093395;28;20337;-85
2023/01/27 03:00:57;;;;;;;6.90;6.17;;;1.10;99.90;;;;;;5093303;28;20209;-84
2023/01/27 03:03:25;;;;;;;9.97;7.53;;;1.10;99.90;;;;;;5092812;28;20221;-84
2023/01/27 03:05:53;;;;;;;6.83;6.23;;;1.10;99.90;;;;;;5093262;28;20216;-84
2023/01/27 03:08:22;;;;;;;6.30;5.67;;;1.10;99.90;;;;;;5093058;28;20213;-84
2023/01/27 03:10:51;;;;;;;10.67;6.50;;;1.10;99.90;;;;;;5093148;28;20258;-83
2023/01/27 03:13:21;;;;;;;6.07;5.50;;;1.10;99.90;;;;;;5093199;28;20304;-83
2023/01/27 03:18:46;;;;;;;5.87;5.37;;;1.00;99.90;;;;;;5093237;28;20200;-84
2023/01/27 03:21:14;;;;;;;7.00;5.37;;;1.00;99.90;;;;;;5093061;28;20230;-83
2023/01/27 03:23:44;;;;;;;7.00;5.72;;;1.00;99.90;;;;;;5092860;28;20248;-84
2023/01/27 03:26:12;;;;;;;6.47;5.87;;;1.10;99.90;;;;;;5093029;28;20208;-84
2023/01/27 03:28:41;;;;;;;8.17;6.30;;;1.00;99.90;;;;;;5092842;28;20205;-83
2023/01/27 03:31:20;;;;;;;5.60;5.03;;;1.00;99.90;;;;;;5092827;28;20229;-83
2023/01/27 03:33:48;;;;;;;7.87;5.83;;;1.00;99.90;;;;;;5092778;28;20224;-83
2023/01/27 03:47:20;;;;;;;5.40;4.90;;;1.00;99.90;;;;;;5092518;28;20204;-84
2023/01/27 03:49:48;;;;;;;6.13;5.60;;;1.00;99.90;;;;;;5092662;28;20208;-83
2023/01/27 03:52:16;;;;;;;8.23;5.93;;;0.90;99.90;;;;;;5092424;28;20227;-83
2023/01/27 03:54:44;;;;;;;5.50;5.00;;;0.90;99.90;;;;;;5092886;28;20292;-84
2023/01/27 03:57:12;;;;;;;5.67;5.13;;;0.90;99.90;;;;;;5091923;28;20211;-83
2023/01/27 03:59:41;;;;;;;8.60;5.67;;;0.90;99.90;;;;;;5092784;28;20208;-83
2023/01/27 04:07:42;;;;;;;5.73;5.20;;;0.90;99.90;;;;;;5092254;28;20207;-83
2023/01/27 04:10:11;;;;;;;5.33;4.83;;;1.00;99.90;;;;;;5092832;28;20208;-82
2023/01/27 04:12:38;;;;;;;6.50;5.90;;;1.00;99.90;;;;;;5092370;28;20239;-83
2023/01/27 04:15:08;;;;;;;7.63;5.90;;;1.00;99.90;;;;;;5095391;28;20223;-83
2023/01/27 04:17:37;;;;;;;8.97;6.23;;;1.00;99.90;;;;;;5096617;28;20291;-83
2023/01/27 04:20:08;;;;;;;10.57;6.70;;;1.00;99.90;;;;;;5096326;28;20283;-83
2023/01/27 04:22:37;;;;;;;7.03;6.33;;;1.00;99.90;;;;;;5096548;28;20215;-82
2023/01/27 04:25:07;;;;;;;8.60;6.27;;;0.90;99.90;;;;;;5096575;28;20223;-82
2023/01/27 04:27:35;;;;;;;5.97;5.47;;;0.90;99.90;;;;;;5096408;28;20209;-83
2023/01/27 04:30:04;;;;;;;6.97;5.80;;;0.90;99.90;;;;;;5096189;28;20200;-83
2023/01/27 04:32:32;;;;;;;4.60;4.20;;;0.90;99.90;;;;;;5095609;28;20231;-84
2023/01/27 04:35:01;;;;;;;6.13;5.53;;;0.90;99.90;;;;;;5096074;28;20312;-83
2023/01/27 04:37:30;;;;;;;5.30;4.80;;;0.90;99.90;;;;;;5096084;28;20204;-83
2023/01/27 04:39:59;;;;;;;6.60;5.33;;;0.90;99.90;;;;;;5096150;28;20213;-84
2023/01/27 04:42:27;;;;;;;5.20;4.50;;;0.90;99.90;;;;;;5096090;28;20203;-83
2023/01/27 04:44:55;;;;;;;6.40;5.43;;;0.90;99.90;;;;;;5096152;28;20211;-83
2023/01/27 04:47:23;;;;;;;6.53;5.70;;;0.90;99.90;;;;;;5095705;28;20204;-83
2023/01/27 04:49:51;;;;;;;10.90;5.47;;;0.90;99.90;;;;;;5095831;28;20208;-83
2023/01/27 04:52:20;;;;;;;4.63;4.23;;;0.80;99.90;;;;;;5095667;28;20231;-82
2023/01/27 04:54:49;;;;;;;6.60;5.27;;;0.80;99.90;;;;;;5096141;28;20220;-83
2023/01/27 04:57:19;;;;;;;6.10;5.27;;;0.90;99.90;;;;;;5095789;28;20211;-83
2023/01/27 04:59:48;;;;;;;4.67;4.27;;;0.80;99.90;;;;;;5095567;28;20212;-83
2023/01/27 05:02:17;;;;;;;5.20;4.70;;;0.80;99.90;;;;;;5096004;28;20211;-83
2023/01/27 05:04:45;;;;;;;7.20;4.73;;;0.80;99.90;;;;;;5095384;28;20227;-83
2023/01/27 05:07:13;;;;;;;5.13;4.67;;;0.80;99.90;;;;;;5095280;28;20211;-83
2023/01/27 05:09:41;;;;;;;5.73;5.23;;;0.80;99.90;;;;;;5095691;28;20212;-83
2023/01/27 05:12:11;;;;;;;5.17;4.60;;;0.80;99.90;;;;;;5095016;28;20225;-84
2023/01/27 05:14:39;;;;;;;9.63;5.90;;;0.80;99.90;;;;;;5095319;28;20221;-83
2023/01/27 05:17:08;;;;;;;5.60;5.10;;;0.90;99.90;;;;;;5095564;28;20215;-84
2023/01/27 05:19:36;;;;;;;6.97;5.50;;;0.80;99.90;;;;;;5095335;28;20204;-84
2023/01/27 05:22:04;;;;;;;6.17;5.07;;;0.80;99.90;;;;;;5095463;28;20197;-84
2023/01/27 05:24:33;;;;;;;7.97;4.77;;;0.80;99.90;;;;;;5095085;28;20234;-84
2023/01/27 05:27:01;;;;;;;6.37;5.73;;;0.80;99.90;;;;;;5094058;28;20213;-84
2023/01/27 05:29:31;;;;;;;5.53;5.03;;;0.80;99.90;;;;;;5095281;28;20205;-84
2023/01/27 05:31:59;;;;;;;7.00;5.87;;;0.80;99.90;;;;;;5094726;28;20226;-84
2023/01/27 05:34:27;;;;;;;9.03;6.40;;;0.80;99.90;;;;;;5094824;28;20228;-84
2023/01/27 05:36:55;;;;;;;6.00;5.20;;;0.80;99.90;;;;;;5095130;28;20235;-84
2023/01/27 05:39:24;;;;;;;6.57;5.73;;;0.90;99.90;;;;;;5094735;28;20208;-85
2023/01/27 05:41:52;;;;;;;7.77;6.23;;;0.90;99.90;;;;;;5094988;28;20196;-83
2023/01/27 05:44:20;;;;;;;7.23;6.20;;;0.90;99.90;;;;;;5094793;28;20224;-84
2023/01/27 05:46:50;;;;;;;9.30;6.47;;;0.80;99.90;;;;;;5094466;28;20303;-84
2023/01/27 05:49:18;;;;;;;6.70;5.83;;;0.80;99.90;;;;;;5094838;28;20219;-84
2023/01/27 05:51:47;;;;;;;6.00;5.50;;;0.90;99.90;;;;;;5094522;28;20231;-85
2023/01/27 05:54:15;;;;;;;7.30;5.53;;;0.90;99.90;;;;;;5094685;28;20230;-83
2023/01/27 05:56:43;;;;;;;6.13;5.50;;;0.90;99.90;;;;;;5094186;28;20211;-83
2023/01/27 05:59:12;;;;;;;7.10;6.07;;;0.90;99.90;;;;;;5095040;28;20201;-84
2023/01/27 06:01:40;;;;;;;6.63;6.00;;;0.80;99.90;;;;;;5094335;28;20197;-84
2023/01/27 06:04:10;;;;;;;6.00;5.30;;;0.80;99.90;;;;;;5094239;28;20248;-84
2023/01/27 06:06:39;;;;;;;8.10;6.07;;;0.80;99.90;;;;;;5094573;28;20203;-84
2023/01/27 06:09:07;;;;;;;6.03;5.50;;;0.80;99.90;;;;;;5094334;28;20211;-84
2023/01/27 06:11:35;;;;;;;7.80;6.43;;;0.80;99.90;;;;;;5093901;28;20277;-83
2023/01/27 06:14:03;;;;;;;7.40;6.10;;;0.80;99.90;;;;;;5094081;28;20227;-83
2023/01/27 06:16:32;;;;;;;7.57;6.07;;;0.80;99.90;;;;;;5093929;28;20209;-83
2023/01/27 06:19:00;;;;;;;8.80;6.57;;;0.80;99.90;;;;;;5093669;28;20208;-83
2023/01/27 06:21:30;;;;;;;6.50;5.87;;;0.80;99.90;;;;;;5093788;28;20219;-83
2023/01/27 06:23:59;;;;;;;6.13;5.53;;;0.80;99.90;;;;;;5093752;28;20281;-84
2023/01/27 06:26:27;;;;;;;8.00;6.67;;;0.80;99.90;;;;;;5093809;28;20299;-83
2023/01/27 06:28:56;;;;;;;9.00;7.10;;;0.80;99.90;;;;;;5093753;28;20200;-83
2023/01/27 06:31:26;;;;;;;8.07;6.50;;;0.80;99.90;;;;;;5093519;28;20200;-83
2023/01/27 06:33:55;;;;;;;7.70;6.13;;;0.80;99.90;;;;;;5093552;28;20227;-83
2023/01/27 06:36:23;;;;;;;6.63;6.03;;;0.80;99.90;;;;;;5093478;28;20204;-83
2023/01/27 06:38:53;;;;;;;8.33;6.43;;;0.80;99.90;;;;;;5092366;28;20204;-84
2023/01/27 06:41:21;;;;;;;9.50;7.60;;;0.90;99.90;;;;;;5093485;28;20296;-83
2023/01/27 06:43:49;;;;;;;8.70;6.53;;;0.80;99.90;;;;;;5093338;28;20224;-83
2023/01/27 06:46:17;;;;;;;7.07;6.23;;;0.90;99.90;;;;;;5093026;28;20215;-83
2023/01/27 06:48:46;;;;;;;7.67;6.97;;;0.90;99.90;;;;;;5092939;28;20208;-83
2023/01/27 06:51:14;;;;;;;11.33;7.20;;;0.90;99.90;;;;;;5093546;28;20219;-83
2023/01/27 06:53:42;;;;;;;8.10;6.83;;;0.90;99.90;;;;;;5092913;28;20225;-84
2023/01/27 06:56:12;;;;;;;8.20;7.23;;;1.00;99.90;;;;;;5093126;28;20204;-84
2023/01/27 06:58:43;;;;;;;9.13;7.47;;;0.90;99.90;;;;;;5092697;28;20216;-85
2023/01/27 07:01:11;;;;;;;10.83;8.10;;;0.90;99.90;;;;;;5092765;28;20218;-83
2023/01/27 07:03:39;;;;;;;9.00;7.23;;;0.90;99.90;;;;;;5093101;28;20234;-83
2023/01/27 07:06:11;;;;;;;9.73;7.93;;;0.80;99.90;;;;;;5092625;28;20204;-83
2023/01/27 07:08:39;;;;;;;9.37;7.37;;;0.80;99.90;;;;;;5092319;28;20401;-84
2023/01/27 07:11:07;;;;;;;8.50;6.73;;;0.80;99.90;;;;;;5092800;28;20208;-83
2023/01/27 07:13:37;;;;;;;13.40;8.13;;;0.80;99.90;;;;;;5092515;28;20254;-83
2023/01/27 07:16:05;;;;;;;8.80;6.07;;;0.80;99.90;;;;;;5092536;28;20204;-83
2023/01/27 07:18:34;;;;;;;8.53;7.17;;;0.90;99.90;;;;;;5092784;28;20204;-84
2023/01/27 07:21:04;;;;;;;9.03;7.63;;;0.90;99.90;;;;;;5093374;28;20208;-83
2023/01/27 07:23:32;;;;;;;10.23;7.30;;;0.90;99.90;;;;;;5092517;28;20251;-83
2023/01/27 07:26:02;;;;;;;10.87;8.33;;;0.90;99.90;;;;;;5092571;28;20212;-83
2023/01/27 07:28:44;;;;;;;8.37;6.80;;;0.90;99.90;;;;;;5092359;28;20224;-83
2023/01/27 07:31:12;;;;;;;11.30;7.47;;;0.90;99.90;;;;;;5092434;28;20204;-84
2023/01/27 07:33:40;;;;;;;8.87;7.40;;;0.90;99.90;;;;;;5092225;28;20232;-83
2023/01/27 07:36:09;;;;;;;11.23;8.00;;;0.90;99.90;;;;;;5092783;28;20210;-84
2023/01/27 07:38:38;;;;;;;10.27;7.23;;;0.90;99.90;;;;;;5092371;28;20204;-83
2023/01/27 07:41:07;;;;;;;9.50;6.40;;;0.90;99.90;;;;;;5092307;28;20200;-83
2023/01/27 07:43:35;;;;;;;7.80;7.07;;;0.90;99.90;;;;;;5092104;28;20304;-83
2023/01/27 07:46:05;;;;;;;10.47;7.63;;;1.00;99.90;;;;;;5092395;28;20209;-84
2023/01/27 07:48:33;;;;;;;11.87;8.07;;;1.00;99.90;;;;;;5092540;28;20218;-83
2023/01/27 07:51:01;;;;;;;10.87;8.20;;;1.10;99.90;;;;;;5092295;28;20206;-83
2023/01/27 07:53:30;;;;;;;8.03;7.20;;;1.00;99.90;;;;;;5092198;28;20228;-82
2023/01/27 07:56:00;;;;;;;8.83;7.43;;;1.00;99.90;;;;;;5092373;28;20219;-84
2023/01/27 07:58:28;;;;;;;7.80;7.00;;;1.00;99.90;;;;;;5092112;28;20300;-83
2023/01/27 08:00:56;;;;;;;8.33;7.20;;;1.00;99.90;;;;;;5092281;28;20208;-84
2023/01/27 08:03:27;;;;;;;8.63;7.63;;;1.00;99.90;;;;;;5092688;28;20231;-83
2023/01/27 08:05:55;;;;;;;31.20;9.67;;;1.10;99.90;;;;;;5092191;28;20231;-83
2023/01/27 08:08:23;;;;;;;18.63;8.00;;;1.10;99.90;;;;;;5091851;28;20200;-84
2023/01/27 08:10:53;;;;;;;9.43;7.80;;;1.10;99.90;;;;;;5092236;28;20215;-85
2023/01/27 08:13:21;;;;;;;8.70;7.47;;;1.10;99.90;;;;;;5091948;28;20228;-84
2023/01/27 08:15:55;;;;;;;10.60;8.17;;;1.10;99.90;;;;;;5092288;28;20201;-84
2023/01/27 08:18:24;;;;;;;12.17;8.77;;;1.10;99.90;;;;;;5091952;28;20215;-84
2023/01/27 08:20:54;;;;;;;11.27;7.77;;;1.10;99.90;;;;;;5091725;28;20208;-83
2023/01/27 08:23:22;;;;;;;9.23;8.20;;;1.20;99.90;;;;;;5091882;28;20242;-83
2023/01/27 08:25:51;;;;;;;9.57;8.20;;;1.20;99.90;;;;;;5091823;28;20220;-83
2023/01/27 08:28:20;;;;;;;11.37;7.63;;;1.20;99.90;;;;;;5092138;28;20204;-83
2023/01/27 08:30:50;;;;;;;12.40;8.23;;;1.30;99.90;;;;;;5092016;28;20217;-84
2023/01/27 08:33:19;;;;;;;8.77;7.87;;;1.30;99.90;;;;;;5091811;28;20228;-84
2023/01/27 08:35:48;;;;;;;16.20;9.20;;;1.30;99.90;;;;;;5091917;28;20204;-83
2023/01/27 08:38:19;;;;;;;9.00;8.10;;;1.20;99.90;;;;;;5091636;28;20200;-84
2023/01/27 08:40:48;;;;;;;10.63;8.50;;;1.20;99.90;;;;;;5092150;28;20215;-83
2023/01/27 08:43:16;;;;;;;11.73;8.50;;;1.20;99.90;;;;;;5091914;28;20228;-83
2023/01/27 08:45:45;;;;;;;13.73;8.70;;;1.20;99.90;;;;;;5092063;28;20215;-84
2023/01/27 08:48:14;;;;;;;11.17;9.53;;;1.20;99.90;;;;;;5091399;28;20204;-83
2023/01/27 08:50:43;;;;;;;9.50;8.50;;;1.20;99.90;;;;;;5091659;28;20212;-83
2023/01/27 08:53:11;;;;;;;11.87;8.43;;;1.20;99.90;;;;;;5091702;28;20238;-83
2023/01/27 08:55:41;;;;;;;12.90;8.90;;;1.20;99.90;;;;;;5091415;28;20260;-83
2023/01/27 08:58:09;;;;;;;10.40;8.07;;;1.20;99.90;;;;;;5091518;28;20209;-84
2023/01/27 09:00:37;;;;;;;13.80;9.40;;;1.30;99.90;;;;;;5092192;28;20213;-84
2023/01/27 09:03:05;;;;;;;9.60;8.43;;;1.20;99.90;;;;;;5095580;28;20226;-84
2023/01/27 09:05:36;;;;;;;9.43;8.40;;;1.30;99.90;;;;;;5095438;28;20214;-83
2023/01/27 09:08:05;;;;;;;10.20;8.97;;;1.20;99.90;;;;;;5095385;28;20204;-84
2023/01/27 09:10:36;;;;;;;10.80;8.23;;;1.30;99.90;;;;;;5095494;28;20208;-84
2023/01/27 09:13:06;;;;;;;12.90;9.37;;;1.20;99.90;;;;;;5094989;28;20225;-83
2023/01/27 09:15:35;;;;;;;8.87;7.60;;;1.20;99.90;;;;;;5095141;28;20204;-84
2023/01/27 09:18:04;;;;;;;11.23;8.80;;;1.20;99.90;;;;;;5094909;28;20208;-84
2023/01/27 09:20:35;;;;;;;9.73;8.63;;;1.30;99.90;;;;;;5095341;28;20212;-84
2023/01/27 09:23:05;;;;;;;12.67;9.27;;;1.40;99.90;;;;;;5095068;28;20225;-84
2023/01/27 09:25:33;;;;;;;11.10;8.17;;;1.30;99.90;;;;;;5094850;28;20209;-84
2023/01/27 09:28:01;;;;;;;11.57;9.80;;;1.20;99.90;;;;;;5094508;28;20215;-85
2023/01/27 09:30:31;;;;;;;10.93;9.67;;;1.20;99.90;;;;;;5094882;28;20227;-84
2023/01/27 09:33:00;;;;;;;13.03;10.27;;;1.30;99.90;;;;;;5095138;28;20239;-84
2023/01/27 09:35:33;;;;;;;12.90;10.83;;;1.30;99.90;;;;;;5094429;28;20237;-83
2023/01/27 09:38:04;;;;;;;15.53;9.67;;;1.30;99.90;;;;;;5094506;28;20197;-85
2023/01/27 09:40:37;;;;;;;13.02;11.15;;;1.40;99.90;;;;;;5094589;28;20204;-83
2023/01/27 09:43:23;;;;;;;16.77;12.47;;;1.40;99.90;;;;;;5094485;28;20228;-84
2023/01/27 09:46:31;;;;;;;23.33;12.80;;;1.40;99.90;;;;;;5094693;28;20215;-84
2023/01/27 09:49:14;;;;;;;15.57;11.33;;;1.40;99.90;;;;;;5094292;28;20212;-84
2023/01/27 09:51:54;;;;;;;17.70;12.03;;;1.40;99.90;;;;;;5094352;28;20212;-83
2023/01/27 09:54:52;;;;;;;12.03;10.77;;;1.40;99.90;;;;;;5094062;28;20228;-83
2023/01/27 09:57:30;;;;;;;15.07;12.03;;;1.40;99.90;;;;;;5093144;28;20214;-83
2023/01/27 10:00:10;;;;;;;15.80;12.00;;;1.50;99.90;;;;;;5094163;28;20196;-83
2023/01/27 10:02:55;;;;;;;13.80;11.40;;;1.50;99.90;;;;;;5094172;28;20204;-83
2023/01/27 10:05:42;;;;;;;18.37;12.63;;;1.40;99.90;;;;;;5094062;28;20204;-84
2023/01/27 10:08:27;;;;;;;15.90;11.90;;;1.50;99.90;;;;;;5093739;28;20212;-83
2023/01/27 10:11:08;;;;;;;20.07;13.50;;;1.50;99.90;;;;;;5094179;28;20208;-84
2023/01/27 10:13:47;;;;;;;15.90;11.85;;;1.50;99.90;;;;;;5093902;28;20220;-84
2023/01/27 10:16:36;;;;;;;19.30;11.97;;;1.50;99.90;;;;;;5093707;28;20208;-84
2023/01/27 10:19:19;;;;;;;17.73;12.90;;;1.40;99.90;;;;;;5093844;28;20223;-84
2023/01/27 10:21:57;;;;;;;12.57;11.27;;;1.30;99.90;;;;;;5093725;28;20204;-84
2023/01/27 10:24:41;;;;;;;24.10;14.40;;;1.30;99.90;;;;;;5093691;28;20232;-83
2023/01/27 10:27:16;;;;;;;19.67;14.10;;;1.20;99.90;;;;;;5093618;28;20250;-84
2023/01/27 10:29:46;;;;;;;14.87;12.07;;;1.20;99.90;;;;;;5093406;28;20204;-84
2023/01/27 10:32:26;;;;;;;13.67;11.97;;;1.10;99.90;;;;;;5093570;28;20208;-84
2023/01/27 10:35:07;;;;;;;16.27;12.53;;;1.10;99.90;;;;;;5093216;28;20228;-83
2023/01/27 10:37:47;;;;;;;19.03;13.67;;;1.20;99.90;;;;;;5093575;28;20208;-83
2023/01/27 10:40:23;;;;;;;18.77;14.07;;;1.30;99.90;;;;;;5093472;28;20200;-84
2023/01/27 10:43:00;;;;;;;15.93;12.73;;;1.30;99.90;;;;;;5093298;28;20228;-84
2023/01/27 10:45:36;;;;;;;20.57;14.23;;;1.30;99.90;;;;;;5093185;28;20205;-84
2023/01/27 10:48:33;;;;;;;13.70;12.27;;;1.40;99.90;;;;;;5093302;28;20204;-84
2023/01/27 10:51:09;;;;;;;15.80;12.90;;;1.40;99.90;;;;;;5088065;28;20208;-83
2023/01/27 10:53:45;;;;;;;16.83;11.77;;;1.50;99.90;;;;;;5093172;28;20228;-85
2023/01/27 10:56:24;;;;;;;17.23;12.80;;;1.50;99.90;;;;;;5092944;28;20223;-85
2023/01/27 10:59:00;;;;;;;15.73;12.27;;;1.50;99.90;;;;;;5092585;28;20211;-85
2023/01/27 11:01:34;;;;;;;16.10;13.33;;;1.40;99.90;;;;;;5093141;28;20303;-85
2023/01/27 11:04:08;;;;;;;16.43;12.40;;;1.50;99.90;;;;;;5092772;28;20274;-85
2023/01/27 11:06:42;;;;;;;17.42;13.05;;;1.50;99.90;;;;;;5093466;28;20208;-85
2023/01/27 11:09:17;;;;;;;15.27;11.73;;;1.50;99.90;;;;;;5092694;28;20218;-85
2023/01/27 11:11:48;;;;;;;14.30;12.75;;;1.50;99.90;;;;;;5092952;28;20237;-85
2023/01/27 11:14:28;;;;;;;13.40;11.60;;;1.60;99.90;;;;;;5092721;28;20235;-85
2023/01/27 11:17:03;;;;;;;11.70;10.37;;;1.60;99.90;;;;;;5092514;28;20212;-85
2023/01/27 11:19:42;;;;;;;15.87;11.93;;;1.50;99.90;;;;;;5092892;28;20208;-85
2023/01/27 11:22:20;;;;;;;17.23;12.33;;;1.50;99.90;;;;;;5092547;28;20204;-85
2023/01/27 11:24:55;;;;;;;18.73;12.67;;;1.40;99.90;;;;;;5092217;28;20204;-85
2023/01/27 11:27:35;;;;;;;14.93;12.33;;;1.40;99.90;;;;;;5092679;28;20216;-85
2023/01/27 11:30:12;;;;;;;17.57;12.37;;;1.40;99.90;;;;;;5092790;28;20297;-85
2023/01/27 11:32:52;;;;;;;16.90;13.20;;;1.50;99.90;;;;;;5092586;28;20220;-84
2023/01/27 11:35:22;;;;;;;21.23;13.03;;;1.50;99.90;;;;;;5092075;28;20230;-86
2023/01/27 11:37:53;;;;;;;16.40;12.40;;;1.60;99.90;;;;;;5092657;28;20200;-86
2023/01/27 11:40:33;;;;;;;13.80;11.27;;;1.60;99.90;;;;;;5092528;28;20273;-85
2023/01/27 11:43:03;;;;;;;15.67;12.57;;;1.50;99.90;;;;;;5092329;28;20311;-85
2023/01/27 11:45:36;;;;;;;24.33;12.83;;;1.50;99.90;;;;;;5092907;28;20215;-85
2023/01/27 11:48:09;;;;;;;14.83;11.27;;;1.50;99.90;;;;;;5091997;28;20215;-85
2023/01/27 11:50:38;;;;;;;32.07;12.73;;;1.50;99.90;;;;;;5092479;28;20207;-85
2023/01/27 11:53:17;;;;;;;17.80;12.27;;;1.50;99.90;;;;;;5092661;28;20321;-85
2023/01/27 11:55:49;;;;;;;18.37;13.10;;;1.40;99.90;;;;;;5092217;28;20216;-85
2023/01/27 11:58:23;;;;;;;16.10;12.83;;;1.40;99.90;;;;;;5093130;28;20215;-85
2023/01/27 12:00:56;;;;;;;17.73;13.23;;;1.40;99.90;;;;;;5092874;28;20211;-84
2023/01/27 12:03:37;;;;;;;17.87;12.87;;;1.30;99.90;;;;;;5092807;28;20239;-86
2023/01/27 12:06:13;;;;;;;20.63;14.33;;;1.30;99.90;;;;;;5092579;28;20284;-86
2023/01/27 12:08:44;;;;;;;13.80;12.27;;;1.30;99.90;;;;;;5092463;28;20237;-85
2023/01/27 12:11:22;;;;;;;17.73;12.27;;;1.30;99.90;;;;;;5093217;28;20216;-85
2023/01/27 12:13:56;;;;;;;14.20;12.80;;;1.30;99.90;;;;;;5092770;28;20231;-85
2023/01/27 12:16:32;;;;;;;22.60;14.57;;;1.20;99.90;;;;;;5092315;28;20225;-85
2023/01/27 12:19:03;;;;;;;20.37;15.03;;;1.20;99.90;;;;;;5092265;28;20214;-85
2023/01/27 12:21:45;;;;;;;17.27;13.70;;;1.30;99.90;;;;;;5092381;28;20209;-85
2023/01/27 12:24:24;;;;;;;18.77;13.73;;;1.30;99.90;;;;;;5092687;28;20224;-85
2023/01/27 12:26:53;;;;;;;16.53;13.87;;;1.40;99.90;;;;;;5092256;28;20219;-85
2023/01/27 12:29:27;;;;;;;19.27;13.90;;;1.40;99.90;;;;;;5092704;28;20201;-85
2023/01/27 12:31:58;;;;;;;18.00;13.60;;;1.40;99.90;;;;;;5092504;28;20201;-85
2023/01/27 12:34:31;;;;;;;14.83;11.67;;;1.40;99.90;;;;;;5092462;28;20252;-84
2023/01/27 12:37:00;;;;;;;17.80;12.20;;;1.40;99.90;;;;;;5094689;28;20235;-85
2023/01/27 12:39:40;;;;;;;18.10;14.00;;;1.50;99.90;;;;;;5096059;28;20204;-85
2023/01/27 12:42:36;;;;;;;18.00;13.82;;;1.60;99.90;;;;;;5096193;28;20211;-85
2023/01/27 12:45:28;;;;;;;19.10;12.53;;;1.60;99.90;;;;;;5096038;28;20201;-86
2023/01/27 12:48:16;;;;;;;20.53;13.90;;;1.70;99.90;;;;;;5095825;28;20211;-84
2023/01/27 12:50:55;;;;;;;18.50;13.02;;;1.70;99.90;;;;;;5095968;28;20231;-84
2023/01/27 12:53:26;;;;;;;14.57;11.60;;;1.60;99.90;;;;;;5096131;28;20319;-85
2023/01/27 12:56:01;;;;;;;13.80;11.83;;;1.70;99.90;;;;;;5095793;28;20221;-84
2023/01/27 12:58:33;;;;;;;17.53;12.23;;;1.60;99.90;;;;;;5095722;28;20204;-85
2023/01/27 13:01:05;;;;;;;12.50;10.97;;;1.60;99.90;;;;;;5095925;28;20205;-85
2023/01/27 13:03:39;;;;;;;20.77;12.13;;;1.60;99.90;;;;;;5096241;28;20236;-85
2023/01/27 13:06:08;;;;;;;16.83;12.63;;;1.60;99.90;;;;;;5095878;28;20200;-85
2023/01/27 13:08:41;;;;;;;18.50;13.90;;;1.70;99.90;;;;;;5095632;28;20273;-85
2023/01/27 13:11:11;;;;;;;22.17;13.73;;;1.70;99.90;;;;;;5095499;28;20210;-85
2023/01/27 13:13:48;;;;;;;16.17;11.93;;;1.70;99.90;;;;;;5095468;28;20220;-84
2023/01/27 13:16:26;;;;;;;18.70;12.97;;;1.60;99.90;;;;;;5095235;28;20224;-85
2023/01/27 13:18:56;;;;;;;13.63;10.93;;;1.60;99.90;;;;;;5095617;28;20266;-85
2023/01/27 13:21:29;;;;;;;14.67;10.93;;;1.60;99.90;;;;;;5095665;28;20216;-85
2023/01/27 13:23:59;;;;;;;19.23;13.03;;;1.60;99.90;;;;;;5095568;28;20229;-85
2023/01/27 13:26:32;;;;;;;14.13;11.67;;;1.50;99.90;;;;;;5095273;28;20246;-85
2023/01/27 13:29:10;;;;;;;16.47;12.20;;;1.50;99.90;;;;;;5094866;28;20200;-85
2023/01/27 13:31:45;;;;;;;12.77;11.37;;;1.50;99.90;;;;;;5095411;28;20200;-85
2023/01/27 13:34:22;;;;;;;16.83;12.40;;;1.50;99.90;;;;;;5095072;28;20231;-85
2023/01/27 13:36:59;;;;;;;13.63;11.47;;;1.50;99.90;;;;;;5094530;28;20216;-85
2023/01/27 13:39:43;;;;;;;11.97;10.73;;;1.60;99.90;;;;;;5095421;28;20200;-85
2023/01/27 13:42:18;;;;;;;17.90;12.43;;;1.50;99.90;;;;;;5095364;28;20223;-85
2023/01/27 13:44:51;;;;;;;12.20;10.20;;;1.50;99.90;;;;;;5095450;28;20214;-85